createdAt,value
2023-02-17T00:00:33.748Z,32.89
2023-02-17T00:03:18.472Z,32.72
2023-02-17T00:06:03.280Z,33.27
2023-02-17T00:08:48.098Z,33.37
2023-02-17T00:11:32.852Z,34.24
2023-02-17T00:14:17.684Z,33.89
2023-02-17T00:17:02.502Z,33.79
2023-02-17T00:19:47.250Z,33.83
2023-02-17T00:22:32.015Z,33.46
2023-02-17T00:25:16.779Z,33.67
2023-02-17T00:28:01.472Z,32.79
2023-02-17T00:30:46.123Z,32.57
2023-02-17T00:33:30.938Z,32.79
2023-02-17T00:36:15.676Z,32.82
2023-02-17T00:39:00.455Z,32.98
2023-02-17T00:41:45.256Z,32.67
2023-02-17T00:44:30.047Z,33.20
2023-02-17T00:47:14.906Z,33.13
2023-02-17T00:49:59.549Z,32.92
2023-02-17T00:52:44.321Z,32.53
2023-02-17T00:55:28.987Z,32.39
2023-02-17T00:58:13.716Z,32.38
2023-02-17T01:00:58.414Z,32.80
2023-02-17T01:03:43.322Z,33.18
2023-02-17T01:06:28.012Z,34.00
2023-02-17T01:09:12.895Z,33.83
2023-02-17T01:11:57.532Z,33.83
2023-02-17T01:14:42.345Z,33.76
2023-02-17T01:17:27.163Z,34.49
2023-02-17T01:20:11.785Z,33.75
2023-02-17T01:22:56.611Z,33.79
2023-02-17T01:25:41.392Z,33.43
2023-02-17T01:28:26.225Z,33.33
2023-02-17T01:31:11.036Z,33.22
2023-02-17T01:33:56.167Z,33.09
2023-02-17T01:36:40.899Z,33.47
2023-02-17T01:39:25.570Z,33.65
2023-02-17T01:42:10.303Z,33.39
2023-02-17T01:44:55.046Z,33.65
2023-02-17T01:47:39.811Z,33.70
2023-02-17T01:50:24.516Z,33.76
2023-02-17T01:53:09.324Z,33.48
2023-02-17T01:55:54.088Z,32.78
2023-02-17T01:58:38.884Z,31.97
2023-02-17T02:01:23.640Z,31.23
2023-02-17T02:04:08.413Z,31.66
2023-02-17T02:06:53.082Z,32.40
2023-02-17T02:09:37.936Z,32.74
2023-02-17T02:12:22.792Z,32.52
2023-02-17T02:15:07.517Z,32.13
2023-02-17T02:17:52.354Z,32.50
2023-02-17T02:20:37.052Z,33.06
2023-02-17T02:23:21.872Z,32.19
2023-02-17T02:26:06.838Z,31.34
2023-02-17T02:28:51.853Z,31.91
2023-02-17T02:31:36.454Z,32.50
2023-02-17T02:34:21.241Z,32.12
2023-02-17T02:37:06.128Z,32.45
2023-02-17T02:39:50.988Z,33.40
2023-02-17T02:42:35.745Z,32.67
2023-02-17T02:45:20.536Z,32.38
2023-02-17T02:48:05.419Z,32.84
2023-02-17T02:50:50.154Z,34.21
2023-02-17T02:53:34.982Z,33.47
2023-02-17T02:56:19.776Z,34.94
2023-02-17T02:59:04.634Z,36.46
2023-02-17T03:01:49.302Z,35.93
2023-02-17T03:04:34.082Z,36.65
2023-02-17T03:07:18.769Z,36.20
2023-02-17T03:10:03.552Z,36.35
2023-02-17T03:12:48.360Z,36.15
2023-02-17T03:15:33.124Z,37.81
2023-02-17T03:18:17.994Z,38.25
2023-02-17T03:21:02.579Z,37.79
2023-02-17T03:23:47.404Z,37.73
2023-02-17T03:26:32.114Z,36.51
2023-02-17T03:29:17.056Z,36.57
2023-02-17T03:32:01.775Z,37.41
2023-02-17T03:34:46.509Z,36.70
2023-02-17T03:37:31.184Z,36.47
2023-02-17T03:40:16.150Z,35.86
2023-02-17T03:43:00.913Z,35.58
2023-02-17T03:45:45.806Z,37.50
2023-02-17T03:48:30.649Z,36.02
2023-02-17T03:51:15.313Z,35.34
2023-02-17T03:54:00.205Z,36.91
2023-02-17T03:56:44.861Z,37.41
2023-02-17T03:59:29.770Z,36.85
2023-02-17T04:02:14.472Z,37.65
2023-02-17T04:04:59.209Z,36.30
2023-02-17T04:07:43.930Z,34.35
2023-02-17T04:10:28.706Z,33.26
2023-02-17T04:13:13.610Z,33.58
2023-02-17T04:15:58.315Z,33.42
2023-02-17T04:18:43.117Z,33.63
2023-02-17T04:21:27.891Z,34.24
2023-02-17T04:24:12.643Z,33.86
2023-02-17T04:26:57.210Z,35.33
2023-02-17T04:29:42.013Z,34.97
2023-02-17T04:32:26.720Z,35.11
2023-02-17T04:35:11.590Z,35.18
2023-02-17T04:37:56.196Z,35.56
2023-02-17T04:40:41.008Z,35.42
2023-02-17T04:43:25.890Z,34.96
2023-02-17T04:46:10.644Z,34.20
2023-02-17T04:48:56.041Z,33.84
2023-02-17T04:51:40.714Z,33.59
2023-02-17T04:54:25.649Z,33.14
2023-02-17T04:57:10.210Z,33.12
2023-02-17T04:59:55.239Z,33.47
2023-02-17T05:02:39.843Z,35.30
2023-02-17T05:05:24.622Z,36.09
2023-02-17T05:08:09.374Z,36.18
2023-02-17T05:10:54.047Z,35.92
2023-02-17T05:13:38.825Z,34.85
2023-02-17T05:16:23.619Z,34.68
2023-02-17T05:19:08.471Z,34.40
2023-02-17T05:21:53.145Z,34.24
2023-02-17T05:24:38.952Z,34.47
2023-02-17T05:27:23.756Z,34.73
2023-02-17T05:30:08.540Z,35.71
2023-02-17T05:32:53.224Z,36.31
2023-02-17T05:35:38.042Z,36.35
2023-02-17T05:38:22.892Z,35.11
2023-02-17T05:41:07.508Z,34.60
2023-02-17T05:43:52.381Z,34.37
2023-02-17T05:46:37.251Z,35.39
2023-02-17T05:49:22.044Z,35.93
2023-02-17T05:52:06.763Z,37.00
2023-02-17T05:54:51.656Z,37.44
2023-02-17T05:57:36.332Z,37.73
2023-02-17T06:00:21.255Z,37.48
2023-02-17T06:03:06.195Z,36.78
2023-02-17T06:05:51.049Z,36.75
2023-02-17T06:08:35.870Z,36.81
2023-02-17T06:11:20.692Z,37.89
2023-02-17T06:14:05.542Z,37.59
2023-02-17T06:16:50.209Z,36.65
2023-02-17T06:19:34.923Z,36.81
2023-02-17T06:22:19.723Z,36.27
2023-02-17T06:25:04.548Z,35.66
2023-02-17T06:27:49.317Z,35.80
2023-02-17T06:30:34.302Z,35.80
2023-02-17T06:33:18.970Z,36.91
2023-02-17T06:36:03.961Z,36.01
2023-02-17T06:38:49.101Z,36.13
2023-02-17T06:41:33.751Z,37.30
2023-02-17T06:44:18.498Z,36.64
2023-02-17T06:47:03.145Z,37.58
2023-02-17T06:49:47.928Z,37.18
2023-02-17T06:52:32.609Z,36.60
2023-02-17T06:55:17.430Z,36.42
2023-02-17T06:58:02.031Z,36.46
2023-02-17T07:00:46.879Z,36.22
2023-02-17T07:03:31.610Z,35.86
2023-02-17T07:06:16.281Z,36.39
2023-02-17T07:09:01.192Z,36.75
2023-02-17T07:11:45.843Z,36.94
2023-02-17T07:14:30.654Z,37.20
2023-02-17T07:17:15.447Z,36.84
2023-02-17T07:20:00.407Z,37.21
2023-02-17T07:22:45.089Z,36.25
2023-02-17T07:25:29.855Z,36.58
2023-02-17T07:28:14.538Z,35.60
2023-02-17T07:30:59.259Z,34.83
2023-02-17T07:33:43.902Z,34.27
2023-02-17T07:36:28.691Z,35.58
2023-02-17T07:39:13.369Z,35.84
2023-02-17T07:41:58.064Z,35.36
2023-02-17T07:44:42.993Z,33.76
2023-02-17T07:47:27.590Z,33.67
2023-02-17T07:50:12.225Z,33.14
2023-02-17T07:52:56.922Z,32.38
2023-02-17T07:55:41.728Z,32.96
2023-02-17T07:58:26.431Z,31.80
2023-02-17T08:01:11.280Z,32.39
2023-02-17T08:03:56.545Z,32.67
2023-02-17T08:06:41.270Z,34.01
2023-02-17T08:09:25.996Z,33.48
2023-02-17T08:12:10.730Z,34.01
2023-02-17T08:14:55.509Z,33.54
2023-02-17T08:17:40.172Z,33.24
2023-02-17T08:20:25.059Z,34.44
2023-02-17T08:23:09.819Z,33.78
2023-02-17T08:25:54.506Z,33.55
2023-02-17T08:28:39.216Z,34.54
2023-02-17T08:31:24.036Z,34.65
2023-02-17T08:34:09.070Z,34.27
2023-02-17T08:36:53.923Z,33.52
2023-02-17T08:39:38.808Z,33.16
2023-02-17T08:42:23.432Z,33.03
2023-02-17T08:45:08.327Z,32.11
2023-02-17T08:47:52.980Z,32.09
2023-02-17T08:50:37.652Z,31.21
2023-02-17T08:53:22.326Z,32.54
2023-02-17T08:56:07.312Z,33.14
2023-02-17T08:58:52.210Z,33.83
2023-02-17T09:01:37.060Z,33.76
2023-02-17T09:04:21.793Z,32.75
2023-02-17T09:07:06.925Z,33.32
2023-02-17T09:09:52.131Z,32.99
2023-02-17T09:12:36.882Z,31.20
2023-02-17T09:15:21.702Z,31.07
2023-02-17T09:18:06.383Z,31.21
2023-02-17T09:20:51.146Z,32.39
2023-02-17T09:23:35.834Z,35.42
2023-02-17T09:26:20.673Z,36.09
2023-02-17T09:29:05.235Z,35.97
2023-02-17T09:31:50.193Z,35.51
2023-02-17T09:34:35.349Z,35.93
2023-02-17T09:37:20.033Z,35.78
2023-02-17T09:40:04.863Z,34.88
2023-02-17T09:42:49.637Z,34.77
2023-02-17T09:45:34.446Z,32.86
2023-02-17T09:48:19.180Z,32.41
2023-02-17T09:51:04.020Z,31.61
2023-02-17T09:53:48.707Z,30.96
2023-02-17T09:56:33.781Z,30.45
2023-02-17T09:59:19.027Z,30.32
2023-02-17T10:02:03.841Z,31.23
2023-02-17T10:04:48.749Z,31.36
2023-02-17T10:07:33.466Z,31.47
2023-02-17T10:10:18.194Z,32.13
2023-02-17T10:13:02.876Z,32.98
2023-02-17T10:15:47.680Z,33.12
2023-02-17T10:18:32.290Z,33.14
2023-02-17T10:21:17.010Z,32.29
2023-02-17T10:24:01.626Z,32.46
2023-02-17T10:26:46.540Z,32.13
2023-02-17T10:29:31.408Z,32.74
2023-02-17T10:32:19.463Z,32.73
2023-02-17T10:35:05.207Z,32.35
2023-02-17T10:37:51.849Z,32.71
2023-02-17T10:40:37.161Z,32.38
2023-02-17T10:43:21.937Z,32.19
2023-02-17T10:46:06.974Z,32.50
2023-02-17T10:48:52.103Z,32.83
2023-02-17T10:51:36.859Z,32.25
2023-02-17T10:54:21.637Z,31.29
2023-02-17T10:57:06.464Z,31.69
2023-02-17T10:59:51.257Z,31.50
2023-02-17T11:02:36.233Z,30.62
2023-02-17T11:05:20.804Z,30.55
2023-02-17T11:08:05.703Z,29.99
2023-02-17T11:10:50.507Z,30.15
2023-02-17T11:13:35.389Z,31.01
2023-02-17T11:16:20.182Z,30.84
2023-02-17T11:19:04.822Z,31.00
2023-02-17T11:21:49.471Z,30.77
2023-02-17T11:24:34.751Z,31.59
2023-02-17T11:27:19.495Z,31.58
2023-02-17T11:30:04.279Z,31.71
2023-02-17T11:32:49.187Z,32.50
2023-02-17T11:35:33.721Z,31.82
2023-02-17T11:38:18.564Z,31.53
2023-02-17T11:41:03.170Z,32.27
2023-02-17T11:43:48.128Z,31.19
2023-02-17T11:46:32.856Z,32.46
2023-02-17T11:49:17.501Z,31.62
2023-02-17T11:52:02.145Z,31.61
2023-02-17T11:54:46.962Z,31.18
2023-02-17T11:57:31.621Z,31.33
2023-02-17T12:00:16.438Z,31.95
2023-02-17T12:03:01.160Z,31.87
2023-02-17T12:05:45.870Z,30.76
2023-02-17T12:08:30.699Z,31.82
2023-02-17T12:11:15.372Z,31.71
2023-02-17T12:14:00.224Z,31.91
2023-02-17T12:16:45.129Z,31.32
2023-02-17T12:19:29.938Z,32.25
2023-02-17T12:22:14.542Z,30.95
2023-02-17T12:24:59.294Z,30.21
2023-02-17T12:27:43.984Z,30.06
2023-02-17T12:30:28.987Z,29.53
2023-02-17T12:33:14.055Z,30.63
2023-02-17T12:35:58.810Z,28.74
2023-02-17T12:38:43.650Z,28.63
2023-02-17T12:41:28.469Z,29.26
2023-02-17T12:44:13.353Z,27.73
2023-02-17T12:46:57.979Z,27.98
2023-02-17T12:49:42.794Z,28.22
2023-02-17T12:52:27.503Z,28.93
2023-02-17T12:55:12.268Z,28.93
2023-02-17T12:57:57.142Z,27.98
2023-02-17T13:00:41.937Z,27.87
2023-02-17T13:03:26.867Z,28.08
2023-02-17T13:06:11.615Z,27.96
2023-02-17T13:08:56.385Z,27.75
2023-02-17T13:11:41.214Z,27.87
2023-02-17T13:14:26.097Z,27.72
2023-02-17T13:17:10.736Z,27.29
2023-02-17T13:19:55.482Z,27.44
2023-02-17T13:22:40.223Z,28.05
2023-02-17T13:25:25.055Z,27.76
2023-02-17T13:28:09.778Z,27.97
2023-02-17T13:30:54.607Z,27.99
2023-02-17T13:33:39.747Z,27.79
2023-02-17T13:36:24.572Z,26.78
2023-02-17T13:39:09.333Z,27.46
2023-02-17T13:41:54.187Z,26.77
2023-02-17T13:44:38.980Z,26.28
2023-02-17T13:47:23.816Z,26.33
2023-02-17T13:50:08.586Z,26.19
2023-02-17T13:52:53.256Z,27.03
2023-02-17T13:55:38.082Z,27.88
2023-02-17T13:58:22.807Z,27.95
2023-02-17T14:01:07.575Z,27.44
2023-02-17T14:03:52.283Z,27.58
2023-02-17T14:06:36.997Z,27.41
2023-02-17T14:09:21.797Z,27.16
2023-02-17T14:12:06.549Z,27.17
2023-02-17T14:14:51.302Z,27.01
2023-02-17T14:17:35.906Z,27.12
2023-02-17T14:20:20.596Z,27.10
2023-02-17T14:23:05.345Z,26.41
2023-02-17T14:25:50.505Z,26.76
2023-02-17T14:28:35.240Z,27.27
2023-02-17T14:31:20.158Z,26.81
2023-02-17T14:34:05.472Z,27.27
2023-02-17T14:36:49.986Z,25.79
2023-02-17T14:39:34.860Z,26.38
2023-02-17T14:42:19.631Z,26.12
2023-02-17T14:45:04.425Z,26.52
2023-02-17T14:47:49.101Z,26.67
2023-02-17T14:50:33.795Z,26.85
2023-02-17T14:53:18.560Z,26.90
2023-02-17T14:56:03.226Z,26.91
2023-02-17T14:58:48.029Z,26.63
2023-02-17T15:01:32.786Z,25.73
2023-02-17T15:04:17.953Z,25.46
2023-02-17T15:07:02.647Z,25.67
2023-02-17T15:09:47.545Z,26.02
2023-02-17T15:12:32.226Z,27.21
2023-02-17T15:15:17.036Z,27.41
2023-02-17T15:18:01.754Z,26.43
2023-02-17T15:20:46.381Z,26.29
2023-02-17T15:23:31.099Z,26.34
2023-02-17T15:26:15.874Z,26.75
2023-02-17T15:29:00.670Z,27.71
2023-02-17T15:31:45.582Z,27.83
2023-02-17T15:34:30.821Z,27.48
2023-02-17T15:37:15.411Z,27.97
2023-02-17T15:40:00.218Z,27.97
2023-02-17T15:42:44.916Z,27.93
2023-02-17T15:45:29.737Z,28.62
2023-02-17T15:48:14.399Z,28.13
2023-02-17T15:50:59.060Z,27.84
2023-02-17T15:53:43.840Z,28.04
2023-02-17T15:56:28.737Z,27.38
2023-02-17T15:59:13.422Z,27.18
2023-02-17T16:01:58.122Z,27.73
2023-02-17T16:04:43.035Z,28.01
2023-02-17T16:07:27.719Z,28.72
2023-02-17T16:10:12.516Z,28.85
2023-02-17T16:12:57.217Z,28.58
2023-02-17T16:15:41.875Z,29.45
2023-02-17T16:18:26.610Z,30.48
2023-02-17T16:21:11.275Z,30.84
2023-02-17T16:23:55.963Z,31.02
2023-02-17T16:26:40.773Z,31.70
2023-02-17T16:29:25.543Z,32.02
2023-02-17T16:32:10.500Z,31.86
2023-02-17T16:34:55.636Z,32.00
2023-02-17T16:37:40.278Z,32.32
2023-02-17T16:40:25.878Z,31.30
2023-02-17T16:43:10.805Z,32.21
2023-02-17T16:45:55.749Z,32.67
2023-02-17T16:48:40.926Z,31.92
2023-02-17T16:51:25.619Z,31.39
2023-02-17T16:54:10.421Z,33.25
2023-02-17T16:56:55.208Z,33.57
2023-02-17T16:59:40.127Z,34.11
2023-02-17T17:02:24.815Z,35.40
2023-02-17T17:05:09.712Z,35.60
2023-02-17T17:07:54.465Z,35.80
2023-02-17T17:10:39.191Z,35.96
2023-02-17T17:13:24.064Z,33.29
2023-02-17T17:16:09.009Z,33.70
2023-02-17T17:18:54.172Z,33.94
2023-02-17T17:21:38.899Z,34.75
2023-02-17T17:24:23.788Z,33.92
2023-02-17T17:27:08.621Z,34.05
2023-02-17T17:29:53.425Z,34.95
2023-02-17T17:32:38.126Z,34.37
2023-02-17T17:35:23.006Z,35.62
2023-02-17T17:38:07.683Z,36.85
2023-02-17T17:40:52.606Z,38.02
2023-02-17T17:43:37.377Z,37.82
2023-02-17T17:46:22.195Z,37.67
2023-02-17T17:49:07.513Z,38.32
2023-02-17T17:51:52.388Z,39.57
2023-02-17T17:54:37.241Z,39.55
2023-02-17T17:57:21.960Z,40.21
2023-02-17T18:00:06.736Z,39.95
2023-02-17T18:02:51.449Z,40.78
2023-02-17T18:05:36.219Z,40.18
2023-02-17T18:08:20.926Z,38.62
2023-02-17T18:11:05.643Z,40.56
2023-02-17T18:13:50.331Z,41.10
2023-02-17T18:16:35.213Z,41.52
2023-02-17T18:19:20.125Z,40.50
2023-02-17T18:22:04.744Z,40.83
2023-02-17T18:24:50.170Z,41.64
2023-02-17T18:27:34.907Z,42.23
2023-02-17T18:30:19.706Z,42.49
2023-02-17T18:33:04.858Z,42.21
2023-02-17T18:35:49.669Z,41.58
2023-02-17T18:38:34.302Z,41.56
2023-02-17T18:41:19.053Z,41.53
2023-02-17T18:44:03.949Z,42.08
2023-02-17T18:46:48.763Z,43.62
2023-02-17T18:49:33.566Z,44.41
2023-02-17T18:52:18.298Z,43.39
2023-02-17T18:55:03.179Z,43.05
2023-02-17T18:57:47.774Z,43.04
2023-02-17T19:00:32.607Z,42.55
2023-02-17T19:03:17.265Z,42.12
2023-02-17T19:06:01.936Z,43.56
2023-02-17T19:08:46.635Z,43.19
2023-02-17T19:11:31.419Z,43.22
2023-02-17T19:14:16.224Z,42.79
2023-02-17T19:17:01.109Z,42.92
2023-02-17T19:19:45.987Z,42.93
2023-02-17T19:22:30.767Z,42.67
2023-02-17T19:25:15.507Z,42.80
2023-02-17T19:28:00.196Z,42.44
2023-02-17T19:30:45.050Z,42.79
2023-02-17T19:33:29.651Z,42.83
2023-02-17T19:36:14.493Z,42.81
2023-02-17T19:38:59.180Z,42.95
2023-02-17T19:41:44.068Z,42.22
2023-02-17T19:44:28.875Z,42.66
2023-02-17T19:47:13.597Z,42.29
2023-02-17T19:49:58.436Z,43.20
2023-02-17T19:52:43.239Z,44.15
2023-02-17T19:55:28.024Z,44.38
2023-02-17T19:58:12.797Z,43.56
2023-02-17T20:00:57.493Z,44.57
2023-02-17T20:03:42.233Z,44.65
2023-02-17T20:06:27.091Z,44.14
2023-02-17T20:09:11.782Z,44.60
2023-02-17T20:11:56.596Z,44.60
2023-02-17T20:14:41.289Z,44.55
2023-02-17T20:17:26.012Z,44.31
2023-02-17T20:20:10.814Z,44.53
2023-02-17T20:22:55.534Z,44.15
2023-02-17T20:25:40.288Z,44.72
2023-02-17T20:28:25.148Z,44.75
2023-02-17T20:31:09.973Z,44.63
2023-02-17T20:33:55.132Z,45.23
2023-02-17T20:36:39.926Z,45.21
2023-02-17T20:39:24.678Z,44.96
2023-02-17T20:42:09.544Z,45.04
2023-02-17T20:44:54.426Z,45.26
2023-02-17T20:47:39.174Z,45.98
2023-02-17T20:50:24.018Z,45.71
2023-02-17T20:53:08.816Z,46.26
2023-02-17T20:55:53.551Z,46.46
2023-02-17T20:58:38.362Z,46.54
2023-02-17T21:01:23.166Z,46.91
2023-02-17T21:04:07.893Z,46.08
2023-02-17T21:06:52.529Z,46.34
2023-02-17T21:09:37.253Z,45.89
2023-02-17T21:12:22.015Z,46.25
2023-02-17T21:15:06.822Z,46.39
2023-02-17T21:17:51.503Z,46.60
2023-02-17T21:20:36.402Z,46.57
2023-02-17T21:23:21.153Z,47.11
2023-02-17T21:26:06.412Z,46.75
2023-02-17T21:28:51.182Z,46.66
2023-02-17T21:31:36.087Z,46.67
2023-02-17T21:34:21.354Z,46.80
2023-02-17T21:37:06.145Z,46.95
2023-02-17T21:39:50.778Z,47.27
2023-02-17T21:42:35.664Z,46.77
2023-02-17T21:45:20.528Z,46.79
2023-02-17T21:48:05.674Z,46.67
2023-02-17T21:50:50.514Z,47.06
2023-02-17T21:53:35.230Z,46.76
2023-02-17T21:56:20.005Z,46.76
2023-02-17T21:59:04.884Z,46.77
2023-02-17T22:01:49.598Z,46.73
2023-02-17T22:04:34.359Z,46.92
2023-02-17T22:07:19.056Z,47.08
2023-02-17T22:10:03.871Z,47.23
2023-02-17T22:12:48.619Z,47.75
2023-02-17T22:15:33.402Z,47.51
2023-02-17T22:18:18.125Z,47.48
2023-02-17T22:21:02.896Z,47.35
2023-02-17T22:23:47.746Z,47.42
2023-02-17T22:26:32.456Z,47.35
2023-02-17T22:29:17.163Z,47.99
2023-02-17T22:32:01.961Z,48.23
2023-02-17T22:34:46.648Z,48.38
2023-02-17T22:37:31.480Z,48.16
2023-02-17T22:40:16.210Z,48.45
2023-02-17T22:43:00.930Z,48.47
2023-02-17T22:45:45.751Z,48.30
2023-02-17T22:48:30.456Z,48.05
2023-02-17T22:51:15.202Z,48.61
2023-02-17T22:53:59.932Z,48.35
2023-02-17T22:56:44.828Z,48.48
2023-02-17T22:59:29.613Z,48.39
2023-02-17T23:02:14.495Z,48.56
2023-02-17T23:04:59.250Z,48.63
2023-02-17T23:07:43.988Z,48.79
2023-02-17T23:10:28.682Z,48.96
2023-02-17T23:13:13.388Z,48.87
2023-02-17T23:15:58.164Z,49.53
2023-02-17T23:18:42.941Z,49.30
2023-02-17T23:21:27.648Z,49.21
2023-02-17T23:24:12.346Z,49.18
2023-02-17T23:26:57.244Z,49.24
2023-02-17T23:29:42.007Z,49.05
2023-02-17T23:32:26.703Z,49.24
2023-02-17T23:35:11.513Z,49.21
2023-02-17T23:37:56.215Z,49.32
2023-02-17T23:40:40.886Z,49.47
2023-02-17T23:43:25.753Z,49.46
2023-02-17T23:46:10.863Z,49.52
2023-02-17T23:48:55.637Z,49.37
2023-02-17T23:51:41.778Z,49.33
2023-02-17T23:54:26.475Z,49.00
2023-02-17T23:57:11.309Z,48.84
2023-02-17T23:59:56.326Z,49.15
